Airfield :
LOGIN :

Register | Disclaimer

   EN    FR    IT 

 










Legend :    VFR   Marginal VFR   IFR   Intensive IFR   Very Intensive IFR
Visi :
Ceiling :
>= 8 km
>= 3000ft
5 to 8 km
1000 to 3000 ft
1500m to 5 km
500 to 1000 ft
800 to 1500m
200 to 500 ft
< 800m
< 200 ft
Symbols :   Thunderstorms  Fog  Heavy snow  Heavy precipitations  Wind > 20 kt
SIGMETs :     Misc.  Thunderstorms  Icing  Turbulence  Mountain Waves  Volcanic Ashes






- Airport Elevation : 157 ft
- IATA code : SXF


EDDB - Berlin Schönefeld

CURRENT METAR :
  • 091550Z 20010KT 9999 -RA BKN039 08/04 Q0999 NOSIG

EXPIRED METARs :
  • 091520Z 20012KT 9999 -RA BKN030 08/04 Q0999 TEMPO 23015G25KT
  • 091450Z 19008KT 9999 BKN047 08/04 Q0999 TEMPO 23015G25KT
  • 091420Z 20011KT CAVOK 09/03 Q0999 TEMPO 23015G25KT
  • 091350Z 21013KT 9999 FEW042 09/03 Q0998 TEMPO 23015G25KT
  • 091320Z 21014KT 9999 SCT040 09/03 Q0998 TEMPO 23015G25KT

TAF TAF EDDB
Valid from the 09 at 12:00 until the 10 at 12:00 UTC


091100Z 0912/1012 21010G20KT 9999 SCT040
TEMPO 0912/0916 21015G25KT
PROB30
TEMPO 0916/0921 24015G30KT SHRA BKN012TCU
BECMG 0921/0924 29015G25KT
BECMG 1000/1003 29010KT



MET'MAP, your aeronautical weather chart ! - Copyright ORBIFLY December 2007 - Disclaimer

ORBIFLY MET'MAP TEAM :

Programming & Development : Alexandra Zaïnal
Concept & original design : Baudouin d'Aumeries
Assistance for programming : Marc-Olivier Méhu
Technical & hardware support : Manuel Goepfert

Contact : metmap@orbifly.com




SOURCES & CREDITS :

   NOAA